createdAt,value
2018-03-29T00:01:19.151Z,41.70
2018-03-29T00:03:48.189Z,40.75
2018-03-29T00:06:17.199Z,40.15
2018-03-29T00:08:46.321Z,40.08
2018-03-29T00:11:15.419Z,38.95
2018-03-29T00:13:44.505Z,40.75
2018-03-29T00:16:13.623Z,43.33
2018-03-29T00:18:42.765Z,45.80
2018-03-29T00:21:11.761Z,46.72
2018-03-29T00:23:40.889Z,46.78
2018-03-29T00:26:09.857Z,51.40
2018-03-29T00:28:39.008Z,50.45
2018-03-29T00:31:08.051Z,52.38
2018-03-29T00:33:37.038Z,51.55
2018-03-29T00:36:06.209Z,52.97
2018-03-29T00:38:35.235Z,53.35
2018-03-29T00:41:04.224Z,53.17
2018-03-29T00:43:33.209Z,53.50
2018-03-29T00:46:03.281Z,53.80
2018-03-29T00:48:32.398Z,51.88
2018-03-29T00:51:01.729Z,53.25
2018-03-29T00:53:42.109Z,55.17
2018-03-29T00:56:11.604Z,55.83
2018-03-29T00:58:40.825Z,53.13
2018-03-29T01:01:10.137Z,51.65
2018-03-29T01:03:39.511Z,54.67
2018-03-29T01:06:09.434Z,55.83
2018-03-29T01:08:38.653Z,56.33
2018-03-29T01:11:07.974Z,52.72
2018-03-29T01:13:37.174Z,53.63
2018-03-29T01:16:06.466Z,57.10
2018-03-29T01:18:35.685Z,60.00
2018-03-29T01:21:05.169Z,61.60
2018-03-29T01:23:34.313Z,57.78
2018-03-29T01:26:03.509Z,59.08
2018-03-29T01:28:32.864Z,59.70
2018-03-29T01:31:02.223Z,58.70
2018-03-29T01:33:31.418Z,57.17
2018-03-29T01:36:00.959Z,55.72
2018-03-29T01:38:30.353Z,56.70
2018-03-29T01:40:59.660Z,52.95
2018-03-29T01:43:29.452Z,53.83
2018-03-29T01:45:58.594Z,52.25
2018-03-29T01:48:27.726Z,52.28
2018-03-29T01:50:56.817Z,50.63
2018-03-29T01:53:26.089Z,49.35
2018-03-29T01:55:55.357Z,48.97
2018-03-29T01:58:24.417Z,47.58
2018-03-29T02:00:53.783Z,44.47
2018-03-29T02:03:22.811Z,44.88
2018-03-29T02:05:52.042Z,45.67
2018-03-29T02:08:21.366Z,46.28
2018-03-29T02:10:50.598Z,47.95
2018-03-29T02:13:19.758Z,49.08
2018-03-29T02:15:48.937Z,49.60
2018-03-29T02:18:18.461Z,46.22
2018-03-29T02:20:47.651Z,45.92
2018-03-29T02:23:16.805Z,43.63
2018-03-29T02:25:46.753Z,40.95
2018-03-29T02:28:15.957Z,40.83
2018-03-29T02:30:45.130Z,41.92
2018-03-29T02:33:14.315Z,44.45
2018-03-29T02:35:43.673Z,46.50
2018-03-29T02:38:12.842Z,44.67
2018-03-29T02:40:42.165Z,41.55
2018-03-29T02:43:11.216Z,42.35
2018-03-29T02:45:40.519Z,42.58
2018-03-29T02:48:09.658Z,45.40
2018-03-29T02:50:38.698Z,47.92
2018-03-29T02:53:07.851Z,47.70
2018-03-29T02:55:37.225Z,45.20
2018-03-29T02:58:06.357Z,40.92
2018-03-29T03:00:35.429Z,40.38
2018-03-29T03:03:04.597Z,38.35
2018-03-29T03:05:33.790Z,41.00
2018-03-29T03:08:03.030Z,43.22
2018-03-29T03:10:32.229Z,40.72
2018-03-29T03:13:01.509Z,42.67
2018-03-29T03:15:30.758Z,39.15
2018-03-29T03:17:59.988Z,39.17
2018-03-29T03:20:29.191Z,43.85
2018-03-29T03:22:58.613Z,43.92
2018-03-29T03:25:27.932Z,39.42
2018-03-29T03:27:57.110Z,42.67
2018-03-29T03:30:26.287Z,41.95
2018-03-29T03:32:55.581Z,43.97
2018-03-29T03:35:24.841Z,46.35
2018-03-29T03:37:54.110Z,44.55
2018-03-29T03:40:23.246Z,42.85
2018-03-29T03:42:52.473Z,42.03
2018-03-29T03:45:21.970Z,42.62
2018-03-29T03:47:51.206Z,44.83
2018-03-29T03:50:20.386Z,41.90
2018-03-29T03:52:49.517Z,44.28
2018-03-29T03:55:18.579Z,45.05
2018-03-29T03:57:47.778Z,46.33
2018-03-29T04:00:16.937Z,48.28
2018-03-29T04:02:46.324Z,48.38
2018-03-29T04:05:15.402Z,47.05
2018-03-29T04:07:44.615Z,49.15
2018-03-29T04:10:13.771Z,52.50
2018-03-29T04:12:42.914Z,52.25
2018-03-29T04:15:13.093Z,53.10
2018-03-29T04:17:42.283Z,53.85
2018-03-29T04:20:11.409Z,50.85
2018-03-29T04:22:40.802Z,49.90
2018-03-29T04:25:10.066Z,47.38
2018-03-29T04:27:39.345Z,46.50
2018-03-29T04:30:08.478Z,46.20
2018-03-29T04:32:37.773Z,46.80
2018-03-29T04:35:06.927Z,42.90
2018-03-29T04:37:36.834Z,44.50
2018-03-29T04:40:06.352Z,43.70
2018-03-29T04:42:36.215Z,44.75
2018-03-29T04:45:05.564Z,43.50
2018-03-29T04:47:34.762Z,47.08
2018-03-29T04:50:03.930Z,55.05
2018-03-29T04:52:33.613Z,52.72
2018-03-29T04:55:02.970Z,51.97
2018-03-29T04:57:32.271Z,72.05
2018-03-29T05:00:01.470Z,55.83
2018-03-29T05:02:31.331Z,49.45
2018-03-29T05:05:00.526Z,48.97
2018-03-29T05:07:29.876Z,46.45
2018-03-29T05:09:59.494Z,42.85
2018-03-29T05:12:28.684Z,46.00
2018-03-29T05:14:57.988Z,42.60
2018-03-29T05:17:27.223Z,43.20
2018-03-29T05:19:56.534Z,38.78
2018-03-29T05:22:25.682Z,38.63
2018-03-29T05:24:54.761Z,37.28
2018-03-29T05:27:26.067Z,37.28
2018-03-29T05:29:55.281Z,38.80
2018-03-29T05:32:24.641Z,39.25
2018-03-29T05:34:54.015Z,45.22
2018-03-29T05:37:23.200Z,55.80
2018-03-29T05:39:52.331Z,67.05
2018-03-29T05:42:21.538Z,55.92
2018-03-29T05:44:50.822Z,60.95
2018-03-29T05:47:19.966Z,49.83
2018-03-29T05:49:49.114Z,40.30
2018-03-29T05:52:18.343Z,40.72
2018-03-29T05:54:47.558Z,49.83
2018-03-29T05:57:16.842Z,47.42
2018-03-29T05:59:46.076Z,43.50
2018-03-29T06:02:15.370Z,39.25
2018-03-29T06:04:44.497Z,45.00
2018-03-29T06:07:13.550Z,43.78
2018-03-29T06:09:43.428Z,42.90
2018-03-29T06:12:12.617Z,43.72
2018-03-29T06:14:45.677Z,41.72
2018-03-29T06:17:21.058Z,40.40
2018-03-29T06:19:50.203Z,36.95
2018-03-29T06:22:19.210Z,36.17
2018-03-29T06:24:48.457Z,34.67
2018-03-29T06:27:18.278Z,33.70
2018-03-29T06:29:47.543Z,37.35
2018-03-29T06:32:16.722Z,35.65
2018-03-29T06:34:45.881Z,34.47
2018-03-29T06:37:15.075Z,33.63
2018-03-29T06:39:44.221Z,35.28
2018-03-29T06:42:13.542Z,33.45
2018-03-29T06:44:42.682Z,36.95
2018-03-29T06:47:11.823Z,40.05
2018-03-29T06:49:41.137Z,56.70
2018-03-29T06:52:10.410Z,60.30
2018-03-29T06:54:39.611Z,53.38
2018-03-29T06:57:08.707Z,47.65
2018-03-29T06:59:38.011Z,46.67
2018-03-29T07:02:07.215Z,41.83
2018-03-29T07:04:36.402Z,36.55
2018-03-29T07:07:06.509Z,46.03
2018-03-29T07:09:35.977Z,41.75
2018-03-29T07:12:05.121Z,41.10
2018-03-29T07:14:34.843Z,38.60
2018-03-29T07:17:04.210Z,37.97
2018-03-29T07:19:33.447Z,36.78
2018-03-29T07:22:02.655Z,38.38
2018-03-29T07:24:31.733Z,40.05
2018-03-29T07:27:00.869Z,35.92
2018-03-29T07:29:30.245Z,33.47
2018-03-29T07:31:59.443Z,34.80
2018-03-29T07:34:28.657Z,32.00
2018-03-29T07:36:57.990Z,34.27
2018-03-29T07:39:27.349Z,35.47
2018-03-29T07:41:56.435Z,33.03
2018-03-29T07:44:25.575Z,33.50
2018-03-29T07:46:54.750Z,31.67
2018-03-29T07:49:23.880Z,33.37
2018-03-29T07:51:52.913Z,31.10
2018-03-29T07:54:22.235Z,30.97
2018-03-29T07:56:51.368Z,29.70
2018-03-29T07:59:20.745Z,30.33
2018-03-29T08:01:49.913Z,30.83
2018-03-29T08:04:20.096Z,30.97
2018-03-29T08:06:49.329Z,33.07
2018-03-29T08:09:18.495Z,31.33
2018-03-29T08:11:47.534Z,31.67
2018-03-29T08:14:16.749Z,33.87
2018-03-29T08:16:46.293Z,31.07
2018-03-29T08:19:15.543Z,30.53
2018-03-29T08:21:44.679Z,30.40
2018-03-29T08:24:13.888Z,31.47
2018-03-29T08:26:43.149Z,31.20
2018-03-29T08:29:12.231Z,31.40
2018-03-29T08:31:41.430Z,31.63
2018-03-29T08:34:10.628Z,31.97
2018-03-29T08:36:39.857Z,29.67
2018-03-29T08:39:09.071Z,30.93
2018-03-29T08:41:39.300Z,29.83
2018-03-29T08:44:08.739Z,31.13
2018-03-29T08:46:38.206Z,30.43
2018-03-29T08:49:07.400Z,29.03
2018-03-29T08:51:36.702Z,27.27
2018-03-29T08:54:05.954Z,29.53
2018-03-29T08:56:35.185Z,30.13
2018-03-29T08:59:04.346Z,28.57
2018-03-29T09:01:34.055Z,28.73
2018-03-29T09:04:03.415Z,29.27
2018-03-29T09:06:32.700Z,28.60
2018-03-29T09:09:01.997Z,27.50
2018-03-29T09:11:31.270Z,26.63
2018-03-29T09:14:00.358Z,30.17
2018-03-29T09:16:29.635Z,29.03
2018-03-29T09:18:59.273Z,30.33
2018-03-29T09:21:28.353Z,29.40
2018-03-29T09:23:57.750Z,23.27
2018-03-29T09:26:27.079Z,23.17
2018-03-29T09:28:56.318Z,21.87
2018-03-29T09:31:25.367Z,23.03
2018-03-29T09:33:54.704Z,24.43
2018-03-29T09:36:23.803Z,21.63
2018-03-29T09:38:53.010Z,23.27
2018-03-29T09:41:22.063Z,23.20
2018-03-29T09:43:51.254Z,21.00
2018-03-29T09:46:21.014Z,22.47
2018-03-29T09:48:50.167Z,20.63
2018-03-29T09:51:19.358Z,20.53
2018-03-29T09:53:48.770Z,22.27
2018-03-29T09:56:18.018Z,21.67
2018-03-29T09:58:47.197Z,20.50
2018-03-29T10:01:16.512Z,21.53
2018-03-29T10:03:51.287Z,20.47
2018-03-29T10:06:25.991Z,21.53
2018-03-29T10:08:55.391Z,20.67
2018-03-29T10:11:24.568Z,20.57
2018-03-29T10:13:53.887Z,20.30
2018-03-29T10:16:23.321Z,19.87
2018-03-29T10:18:52.485Z,19.90
2018-03-29T10:21:21.757Z,20.67
2018-03-29T10:23:50.946Z,19.97
2018-03-29T10:26:20.372Z,18.93
2018-03-29T10:28:49.527Z,20.30
2018-03-29T10:31:18.723Z,20.07
2018-03-29T10:33:47.914Z,18.30
2018-03-29T10:36:17.053Z,20.03
2018-03-29T10:38:46.398Z,20.43
2018-03-29T10:41:15.669Z,19.80
2018-03-29T10:43:44.647Z,19.70
2018-03-29T10:46:14.168Z,21.40
2018-03-29T10:48:43.513Z,21.23
2018-03-29T10:51:12.876Z,19.30
2018-03-29T10:53:42.170Z,20.23
2018-03-29T10:56:11.274Z,18.50
2018-03-29T10:58:40.901Z,18.70
2018-03-29T11:01:10.129Z,18.33
2018-03-29T11:03:39.188Z,17.50
2018-03-29T11:06:09.097Z,19.60
2018-03-29T11:08:38.359Z,19.03
2018-03-29T11:11:07.445Z,18.63
2018-03-29T11:13:36.680Z,18.83
2018-03-29T11:16:06.038Z,19.90
2018-03-29T11:18:35.237Z,18.10
2018-03-29T11:21:04.342Z,20.53
2018-03-29T11:23:33.526Z,17.90
2018-03-29T11:26:02.778Z,19.30
2018-03-29T11:28:32.049Z,17.87
2018-03-29T11:31:01.116Z,18.33
2018-03-29T11:33:30.467Z,17.93
2018-03-29T11:35:59.740Z,16.83
2018-03-29T11:38:29.081Z,16.80
2018-03-29T11:40:58.174Z,17.07
2018-03-29T11:43:27.480Z,16.77
2018-03-29T11:45:56.679Z,17.23
2018-03-29T11:48:25.913Z,16.57
2018-03-29T11:50:55.804Z,16.17
2018-03-29T11:53:24.998Z,16.07
2018-03-29T11:55:54.187Z,16.70
2018-03-29T11:58:24.153Z,16.63
2018-03-29T12:00:53.549Z,16.97
2018-03-29T12:03:22.912Z,16.10
2018-03-29T12:05:52.274Z,16.77
2018-03-29T12:08:21.616Z,15.50
2018-03-29T12:10:50.704Z,16.83
2018-03-29T12:13:19.867Z,16.93
2018-03-29T12:15:49.122Z,18.10
2018-03-29T12:18:18.363Z,18.07
2018-03-29T12:20:47.657Z,17.57
2018-03-29T12:23:16.986Z,21.17
2018-03-29T12:25:46.050Z,21.53
2018-03-29T12:28:15.410Z,22.63
2018-03-29T12:30:44.646Z,24.20
2018-03-29T12:33:13.741Z,23.10
2018-03-29T12:35:43.090Z,23.00
2018-03-29T12:38:12.382Z,24.57
2018-03-29T12:40:41.552Z,30.13
2018-03-29T12:43:11.010Z,29.77
2018-03-29T12:45:40.150Z,32.20
2018-03-29T12:48:09.282Z,31.63
2018-03-29T12:50:38.517Z,30.70
2018-03-29T12:53:07.642Z,30.40
2018-03-29T12:55:41.887Z,30.67
2018-03-29T12:58:11.702Z,30.97
2018-03-29T13:00:40.973Z,30.80
2018-03-29T13:03:10.128Z,31.30
2018-03-29T13:05:39.318Z,34.60
2018-03-29T13:08:13.841Z,30.17
2018-03-29T13:10:43.766Z,33.80
2018-03-29T13:13:13.109Z,32.20
2018-03-29T13:15:42.359Z,30.07
2018-03-29T13:18:12.254Z,29.53
2018-03-29T13:20:41.525Z,29.90
2018-03-29T13:23:10.880Z,27.90
2018-03-29T13:25:40.288Z,26.37
2018-03-29T13:28:09.321Z,25.33
2018-03-29T13:30:38.683Z,26.80
2018-03-29T13:33:07.978Z,27.10
2018-03-29T13:35:37.161Z,28.60
2018-03-29T13:38:06.332Z,25.73
2018-03-29T13:40:35.413Z,27.27
2018-03-29T13:43:04.659Z,29.77
2018-03-29T13:45:33.846Z,30.50
2018-03-29T13:48:02.968Z,27.67
2018-03-29T13:50:32.213Z,31.10
2018-03-29T13:53:01.567Z,29.60
2018-03-29T13:55:30.713Z,27.17
2018-03-29T13:58:00.166Z,30.23
2018-03-29T14:00:29.350Z,26.17
2018-03-29T14:02:58.637Z,30.13
2018-03-29T14:05:27.806Z,28.50
2018-03-29T14:07:57.073Z,27.43
2018-03-29T14:10:26.270Z,27.47
2018-03-29T14:12:55.614Z,28.70
2018-03-29T14:15:25.802Z,29.23
2018-03-29T14:17:54.947Z,29.23
2018-03-29T14:20:24.294Z,28.63
2018-03-29T14:22:53.641Z,27.43
2018-03-29T14:25:22.843Z,28.83
2018-03-29T14:27:52.082Z,28.13
2018-03-29T14:30:21.287Z,27.93
2018-03-29T14:32:50.378Z,27.63
2018-03-29T14:35:19.907Z,27.80
2018-03-29T14:37:49.085Z,26.53
2018-03-29T14:40:18.338Z,28.17
2018-03-29T14:42:47.448Z,28.10
2018-03-29T14:45:16.786Z,28.13
2018-03-29T14:47:45.989Z,27.73
2018-03-29T14:50:15.143Z,29.53
2018-03-29T14:52:44.350Z,29.73
2018-03-29T14:55:13.584Z,29.60
2018-03-29T14:57:42.986Z,29.20
2018-03-29T15:00:12.283Z,29.63
2018-03-29T15:02:41.321Z,30.10
2018-03-29T15:05:10.783Z,30.77
2018-03-29T15:07:40.043Z,31.50
2018-03-29T15:10:09.258Z,29.50
2018-03-29T15:12:38.425Z,29.87
2018-03-29T15:15:07.889Z,28.33
2018-03-29T15:17:37.200Z,31.17
2018-03-29T15:20:06.387Z,31.27
2018-03-29T15:22:35.448Z,27.53
2018-03-29T15:25:04.498Z,28.70
2018-03-29T15:27:33.810Z,29.60
2018-03-29T15:30:02.831Z,27.33
2018-03-29T15:32:32.280Z,28.93
2018-03-29T15:35:01.322Z,28.37
2018-03-29T15:37:30.621Z,27.50
2018-03-29T15:40:00.146Z,28.83
2018-03-29T15:42:29.317Z,26.40
2018-03-29T15:44:58.557Z,27.13
2018-03-29T15:47:27.658Z,26.50
2018-03-29T15:49:56.813Z,26.80
2018-03-29T15:52:26.079Z,24.67
2018-03-29T15:54:55.249Z,25.47
2018-03-29T15:57:24.271Z,26.23
2018-03-29T15:59:53.397Z,27.00
2018-03-29T16:02:22.507Z,27.30
2018-03-29T16:04:51.603Z,26.27
2018-03-29T16:07:21.058Z,26.53
2018-03-29T16:09:50.105Z,25.10
2018-03-29T16:12:19.299Z,26.00
2018-03-29T16:14:48.446Z,26.70
2018-03-29T16:17:17.669Z,28.33
2018-03-29T16:19:46.885Z,28.60
2018-03-29T16:22:16.040Z,28.47
2018-03-29T16:24:46.182Z,30.20
2018-03-29T16:27:15.156Z,29.90
2018-03-29T16:29:44.355Z,29.90
2018-03-29T16:32:13.385Z,28.43
2018-03-29T16:34:42.594Z,29.93
2018-03-29T16:37:11.725Z,29.87
2018-03-29T16:39:40.942Z,30.70
2018-03-29T16:42:10.310Z,29.73
2018-03-29T16:44:39.406Z,29.80
2018-03-29T16:47:08.551Z,29.53
2018-03-29T16:49:37.814Z,31.87
2018-03-29T16:52:06.977Z,31.27
2018-03-29T16:54:36.217Z,33.93
2018-03-29T16:57:05.588Z,35.07
2018-03-29T16:59:34.833Z,34.80
2018-03-29T17:02:03.887Z,33.75
2018-03-29T17:04:32.979Z,37.20
2018-03-29T17:07:02.067Z,35.53
2018-03-29T17:09:31.186Z,34.80
2018-03-29T17:12:00.380Z,33.40
2018-03-29T17:14:29.573Z,35.27
2018-03-29T17:16:58.684Z,34.10
2018-03-29T17:19:28.030Z,35.28
2018-03-29T17:21:57.313Z,37.58
2018-03-29T17:24:26.481Z,36.05
2018-03-29T17:26:55.506Z,36.83
2018-03-29T17:29:24.609Z,38.97
2018-03-29T17:31:53.751Z,52.92
2018-03-29T17:34:23.045Z,46.28
2018-03-29T17:36:52.196Z,38.95
2018-03-29T17:39:21.394Z,38.67
2018-03-29T17:41:50.665Z,45.63
2018-03-29T17:44:19.858Z,39.33
2018-03-29T17:46:49.194Z,39.55
2018-03-29T17:49:18.562Z,44.15
2018-03-29T17:51:47.838Z,38.78
2018-03-29T17:54:17.127Z,34.78
2018-03-29T17:56:46.381Z,33.60
2018-03-29T17:59:15.547Z,36.17
2018-03-29T18:01:44.739Z,35.75
2018-03-29T18:04:14.234Z,38.67
2018-03-29T18:06:43.342Z,37.67
2018-03-29T18:09:12.587Z,39.08
2018-03-29T18:11:41.587Z,37.20
2018-03-29T18:14:10.602Z,44.25
2018-03-29T18:16:39.765Z,38.28
2018-03-29T18:19:08.770Z,40.75
2018-03-29T18:21:37.929Z,42.13
2018-03-29T18:24:07.190Z,42.92
2018-03-29T18:26:36.379Z,38.70
2018-03-29T18:29:05.775Z,42.10
2018-03-29T18:31:34.919Z,47.72
2018-03-29T18:34:04.427Z,52.80
2018-03-29T18:36:33.696Z,47.45
2018-03-29T18:39:03.054Z,52.03
2018-03-29T18:41:32.091Z,52.75
2018-03-29T18:44:01.153Z,53.72
2018-03-29T18:46:30.364Z,56.72
2018-03-29T18:48:59.535Z,57.25
2018-03-29T18:51:28.866Z,57.38
2018-03-29T18:53:57.980Z,58.15
2018-03-29T18:56:27.250Z,56.07
2018-03-29T18:58:56.501Z,57.65
2018-03-29T19:01:26.780Z,59.20
2018-03-29T19:03:55.921Z,60.92
2018-03-29T19:06:25.076Z,61.15
2018-03-29T19:08:54.374Z,64.85
2018-03-29T19:11:23.449Z,61.22
2018-03-29T19:13:53.136Z,64.60
2018-03-29T19:16:22.382Z,62.72
2018-03-29T19:18:51.452Z,63.38
2018-03-29T19:21:20.962Z,62.03
2018-03-29T19:23:50.086Z,61.42
2018-03-29T19:26:19.213Z,57.42
2018-03-29T19:28:48.476Z,60.78
2018-03-29T19:31:17.746Z,62.53
2018-03-29T19:33:47.053Z,59.88
2018-03-29T19:36:16.259Z,59.33
2018-03-29T19:38:45.545Z,61.10
2018-03-29T19:41:14.723Z,55.15
2018-03-29T19:43:43.957Z,56.67
2018-03-29T19:46:13.128Z,56.55
2018-03-29T19:48:42.205Z,57.58
2018-03-29T19:51:11.319Z,56.03
2018-03-29T19:53:40.427Z,57.75
2018-03-29T19:56:09.738Z,57.83
2018-03-29T19:58:38.971Z,58.67
2018-03-29T20:01:08.138Z,58.90
2018-03-29T20:03:37.228Z,56.47
2018-03-29T20:06:06.451Z,56.85
2018-03-29T20:08:35.579Z,57.05
2018-03-29T20:11:05.410Z,57.75
2018-03-29T20:13:34.625Z,60.55
2018-03-29T20:16:04.070Z,61.80
2018-03-29T20:18:33.133Z,58.67
2018-03-29T20:21:02.401Z,61.08
2018-03-29T20:23:31.877Z,61.08
2018-03-29T20:26:01.205Z,61.83
2018-03-29T20:28:30.259Z,58.03
2018-03-29T20:30:59.411Z,61.83
2018-03-29T20:33:28.657Z,59.45
2018-03-29T20:35:57.950Z,58.63
2018-03-29T20:38:27.102Z,63.55
2018-03-29T20:40:56.422Z,60.65
2018-03-29T20:43:25.647Z,59.63
2018-03-29T20:45:55.361Z,62.75
2018-03-29T20:48:24.554Z,59.90
2018-03-29T20:50:53.615Z,57.60
2018-03-29T20:53:22.806Z,60.40
2018-03-29T20:55:52.052Z,61.37
2018-03-29T20:58:21.401Z,59.67
2018-03-29T21:00:50.604Z,61.37
2018-03-29T21:03:19.789Z,61.10
2018-03-29T21:05:49.221Z,60.83
2018-03-29T21:08:18.442Z,59.80
2018-03-29T21:10:47.599Z,60.78
2018-03-29T21:13:16.833Z,57.58
2018-03-29T21:15:46.054Z,61.63
2018-03-29T21:18:15.190Z,61.67
2018-03-29T21:20:44.396Z,59.30
2018-03-29T21:23:13.478Z,60.50
2018-03-29T21:25:42.846Z,61.20
2018-03-29T21:28:12.244Z,60.90
2018-03-29T21:30:41.491Z,58.92
2018-03-29T21:33:10.887Z,58.95
2018-03-29T21:35:40.257Z,55.50
2018-03-29T21:38:10.257Z,61.20
2018-03-29T21:40:39.567Z,61.85
2018-03-29T21:43:08.680Z,59.88
2018-03-29T21:45:37.873Z,58.65
2018-03-29T21:48:07.101Z,60.55
2018-03-29T21:50:36.254Z,58.60
2018-03-29T21:53:05.433Z,60.20
2018-03-29T21:55:35.427Z,62.70
2018-03-29T21:58:04.876Z,65.95
2018-03-29T22:00:34.199Z,65.37
2018-03-29T22:03:03.417Z,68.43
2018-03-29T22:05:32.785Z,71.15
2018-03-29T22:08:01.918Z,72.90
2018-03-29T22:10:31.216Z,77.45
2018-03-29T22:13:00.559Z,76.37
2018-03-29T22:15:29.713Z,74.93
2018-03-29T22:17:58.965Z,76.53
2018-03-29T22:20:28.243Z,76.62
2018-03-29T22:22:57.419Z,73.97
2018-03-29T22:25:26.569Z,73.20
2018-03-29T22:27:55.754Z,75.00
2018-03-29T22:30:24.933Z,77.60
2018-03-29T22:32:54.138Z,79.95
2018-03-29T22:35:23.212Z,81.70
2018-03-29T22:37:52.446Z,83.07
2018-03-29T22:40:21.494Z,81.50
2018-03-29T22:42:50.794Z,79.22
2018-03-29T22:45:20.044Z,78.28
2018-03-29T22:47:49.195Z,81.57
2018-03-29T22:50:18.417Z,86.90
2018-03-29T22:52:47.549Z,94.97
2018-03-29T22:55:16.794Z,87.85
2018-03-29T22:57:45.887Z,86.87
2018-03-29T23:00:15.121Z,89.68
2018-03-29T23:02:43.797Z,84.15
2018-03-29T23:05:12.967Z,90.93
2018-03-29T23:07:42.175Z,83.90
2018-03-29T23:10:11.429Z,86.75
2018-03-29T23:12:40.517Z,92.88
2018-03-29T23:17:44.949Z,85.80
2018-03-29T23:20:14.054Z,87.25
2018-03-29T23:22:43.186Z,90.47
2018-03-29T23:25:12.550Z,94.55
2018-03-29T23:27:41.681Z,90.62
2018-03-29T23:30:10.886Z,89.25
2018-03-29T23:32:40.192Z,85.70
2018-03-29T23:35:09.412Z,87.35
2018-03-29T23:37:38.622Z,84.03
2018-03-29T23:40:08.011Z,84.43
2018-03-29T23:42:37.282Z,76.20
2018-03-29T23:45:06.646Z,67.03
2018-03-29T23:47:36.534Z,64.70
2018-03-29T23:50:05.809Z,63.10
2018-03-29T23:52:34.955Z,63.75
2018-03-29T23:55:04.297Z,63.83
2018-03-29T23:57:33.498Z,63.72
